New Orleans, Louisiana
Traffic Map
Current Weather Conditions
New Orleans, Louisiana
Clear
Clear
26°
Feels Like: 28°
Wind Chill: 26° Ceiling: Unl
Heat Index: 28° Visibility: 10mi
Dew Point: 22° Wind: 3mph
Humidity: 78% Direction: 230° (SW)
Pressure: 29.99in Gusts: 0mph
Raw Report DataKVSH 250855Z AUTO 23003KT 10SM CLR 26/22 A2999 RMK AO1 54000
Traffic Incident Summary
Active as of:
Severity:
Category:
InformationThere was an issue retrieving the traffic information for this location. Please try a different location or try again shortly.
Advertisements
Track Severe Weather on mobile